createdAt,value
2018-09-03T00:01:15.345Z,88.90
2018-09-03T00:03:44.416Z,88.60
2018-09-03T00:06:13.732Z,88.30
2018-09-03T00:08:43.020Z,88.20
2018-09-03T00:11:13.198Z,88.20
2018-09-03T00:13:42.538Z,88.40
2018-09-03T00:16:11.611Z,88.60
2018-09-03T00:18:40.820Z,88.60
2018-09-03T00:21:09.897Z,88.60
2018-09-03T00:23:39.107Z,88.70
2018-09-03T00:26:08.315Z,88.70
2018-09-03T00:28:37.429Z,88.80
2018-09-03T00:31:11.756Z,88.90
2018-09-03T00:33:46.138Z,89.30
2018-09-03T00:36:20.534Z,89.30
2018-09-03T00:38:54.765Z,89.40
2018-09-03T00:41:28.952Z,89.60
2018-09-03T00:44:03.188Z,89.80
2018-09-03T00:46:37.251Z,89.60
2018-09-03T00:49:06.366Z,89.60
2018-09-03T00:51:35.767Z,89.80
2018-09-03T00:54:05.075Z,89.80
2018-09-03T00:56:34.248Z,90.30
2018-09-03T00:59:03.635Z,90.00
2018-09-03T01:01:32.930Z,90.00
2018-09-03T01:04:02.161Z,90.00
2018-09-03T01:06:31.545Z,90.00
2018-09-03T01:09:00.762Z,90.00
2018-09-03T01:11:29.996Z,90.00
2018-09-03T01:13:59.192Z,90.10
2018-09-03T01:16:28.467Z,90.10
2018-09-03T01:18:57.583Z,90.30
2018-09-03T01:21:27.157Z,90.20
2018-09-03T01:23:56.363Z,90.20
2018-09-03T01:26:25.570Z,90.40
2018-09-03T01:28:54.706Z,90.30
2018-09-03T01:31:24.100Z,90.40
2018-09-03T01:33:54.126Z,90.40
2018-09-03T01:36:23.302Z,90.40
2018-09-03T01:38:52.438Z,90.40
2018-09-03T01:41:21.507Z,90.30
2018-09-03T01:43:50.804Z,90.70
2018-09-03T01:46:20.113Z,90.60
2018-09-03T01:48:49.439Z,90.70
2018-09-03T01:51:18.602Z,90.60
2018-09-03T01:53:47.868Z,90.60
2018-09-03T01:56:16.960Z,90.80
2018-09-03T01:58:46.103Z,90.80
2018-09-03T02:01:15.311Z,90.90
2018-09-03T02:03:45.866Z,91.00
2018-09-03T02:06:15.072Z,91.20
2018-09-03T02:08:44.249Z,91.10
2018-09-03T02:11:13.378Z,91.10
2018-09-03T02:13:42.677Z,91.00
2018-09-03T02:16:11.887Z,91.00
2018-09-03T02:18:47.742Z,91.00
2018-09-03T02:21:16.953Z,91.00
2018-09-03T02:23:46.113Z,91.00
2018-09-03T02:26:15.259Z,91.20
2018-09-03T02:28:44.418Z,91.20
2018-09-03T02:31:13.556Z,91.20
2018-09-03T02:33:42.758Z,91.20
2018-09-03T02:36:12.025Z,91.20
2018-09-03T02:38:41.242Z,91.40
2018-09-03T02:41:10.524Z,91.30
2018-09-03T02:43:39.641Z,91.30
2018-09-03T02:46:08.756Z,91.30
2018-09-03T02:48:37.924Z,91.40
2018-09-03T02:51:07.282Z,91.40
2018-09-03T02:53:36.493Z,91.50
2018-09-03T02:56:05.862Z,91.60
2018-09-03T02:58:35.179Z,91.60
2018-09-03T03:01:04.558Z,91.60
2018-09-03T03:03:33.662Z,91.50
2018-09-03T03:06:03.062Z,91.50
2018-09-03T03:08:32.186Z,91.50
2018-09-03T03:11:01.603Z,91.50
2018-09-03T03:13:30.795Z,91.70
2018-09-03T03:15:59.882Z,91.80
2018-09-03T03:18:29.156Z,91.70
2018-09-03T03:20:58.317Z,91.90
2018-09-03T03:23:27.621Z,91.80
2018-09-03T03:25:56.911Z,92.10
2018-09-03T03:28:26.027Z,92.00
2018-09-03T03:30:55.209Z,91.90
2018-09-03T03:33:24.284Z,92.10
2018-09-03T03:35:53.616Z,92.20
2018-09-03T03:38:22.717Z,92.10
2018-09-03T03:40:51.983Z,92.40
2018-09-03T03:43:21.397Z,92.10
2018-09-03T03:45:51.521Z,92.20
2018-09-03T03:48:20.676Z,92.20
2018-09-03T03:50:50.002Z,92.20
2018-09-03T03:53:19.293Z,92.20
2018-09-03T03:55:48.662Z,92.30
2018-09-03T03:58:17.768Z,92.20
2018-09-03T04:00:46.980Z,92.30
2018-09-03T04:03:16.368Z,92.20
2018-09-03T04:05:45.516Z,92.30
2018-09-03T04:08:14.802Z,92.50
2018-09-03T04:10:44.097Z,92.30
2018-09-03T04:13:13.329Z,92.50
2018-09-03T04:15:42.572Z,92.50
2018-09-03T04:18:11.659Z,92.50
2018-09-03T04:20:41.152Z,92.50
2018-09-03T04:23:10.286Z,92.60
2018-09-03T04:25:39.591Z,92.60
2018-09-03T04:28:08.779Z,92.80
2018-09-03T04:30:38.175Z,92.80
2018-09-03T04:33:07.456Z,92.90
2018-09-03T04:35:36.566Z,93.00
2018-09-03T04:38:05.809Z,93.10
2018-09-03T04:40:35.075Z,93.20
2018-09-03T04:43:04.405Z,93.20
2018-09-03T04:45:33.688Z,93.50
2018-09-03T04:48:02.942Z,93.40
2018-09-03T04:50:32.268Z,93.70
2018-09-03T04:53:01.732Z,93.60
2018-09-03T04:55:31.035Z,93.60
2018-09-03T04:58:00.303Z,93.80
2018-09-03T05:00:29.651Z,93.90
2018-09-03T05:02:58.948Z,93.90
2018-09-03T05:05:28.193Z,94.10
2018-09-03T05:07:57.491Z,94.00
2018-09-03T05:10:27.044Z,94.30
2018-09-03T05:12:56.566Z,94.40
2018-09-03T05:15:25.782Z,94.60
2018-09-03T05:17:55.039Z,94.70
2018-09-03T05:20:24.355Z,94.50
2018-09-03T05:22:53.675Z,94.70
2018-09-03T05:25:22.885Z,94.60
2018-09-03T05:27:52.197Z,94.50
2018-09-03T05:30:21.442Z,94.50
2018-09-03T05:32:50.796Z,95.10
2018-09-03T05:35:19.922Z,94.80
2018-09-03T05:37:49.028Z,95.00
2018-09-03T05:40:18.282Z,95.10
2018-09-03T05:42:48.089Z,94.80
2018-09-03T05:45:17.394Z,95.10
2018-09-03T05:47:49.605Z,94.90
2018-09-03T05:50:21.718Z,94.60
2018-09-03T05:52:51.065Z,94.70
2018-09-03T05:55:20.626Z,94.60
2018-09-03T05:57:49.898Z,94.80
2018-09-03T06:00:19.243Z,94.70
2018-09-03T06:02:48.519Z,95.00
2018-09-03T06:05:18.238Z,95.00
2018-09-03T06:07:47.658Z,94.90
2018-09-03T06:10:16.999Z,95.50
2018-09-03T06:12:46.296Z,95.10
2018-09-03T06:15:15.713Z,95.30
2018-09-03T06:17:44.997Z,95.60
2018-09-03T06:20:14.328Z,96.40
2018-09-03T06:22:43.642Z,95.50
2018-09-03T06:25:13.073Z,95.40
2018-09-03T06:27:42.167Z,96.10
2018-09-03T06:30:11.449Z,95.90
2018-09-03T06:32:40.857Z,96.40
2018-09-03T06:35:10.072Z,96.60
2018-09-03T06:37:39.252Z,96.40
2018-09-03T06:40:08.473Z,96.20
2018-09-03T06:42:37.815Z,96.10
2018-09-03T06:45:07.335Z,95.90
2018-09-03T06:47:36.664Z,95.60
2018-09-03T06:50:06.054Z,95.60
2018-09-03T06:52:37.451Z,95.90
2018-09-03T06:55:07.122Z,95.80
2018-09-03T06:57:36.478Z,96.20
2018-09-03T07:00:06.467Z,96.70
2018-09-03T07:02:35.836Z,96.80
2018-09-03T07:05:05.148Z,96.70
2018-09-03T07:07:34.373Z,96.30
2018-09-03T07:10:04.876Z,96.00
2018-09-03T07:12:34.290Z,96.60
2018-09-03T07:15:04.156Z,96.10
2018-09-03T07:17:33.535Z,96.50
2018-09-03T07:20:02.961Z,96.30
2018-09-03T07:22:32.289Z,96.00
2018-09-03T07:25:01.450Z,96.80
2018-09-03T07:27:30.765Z,96.60
2018-09-03T07:30:00.128Z,96.30
2018-09-03T07:32:29.265Z,96.50
2018-09-03T07:34:58.599Z,97.10
2018-09-03T07:37:27.861Z,96.40
2018-09-03T07:39:57.082Z,96.40
2018-09-03T07:42:26.211Z,96.50
2018-09-03T07:44:55.519Z,96.30
2018-09-03T07:47:24.881Z,96.60
2018-09-03T07:49:55.573Z,96.90
2018-09-03T07:52:24.905Z,96.50
2018-09-03T07:54:54.127Z,97.10
2018-09-03T07:57:23.211Z,97.30
2018-09-03T07:59:52.510Z,97.90
2018-09-03T08:02:21.558Z,97.60
2018-09-03T08:04:51.026Z,97.40
2018-09-03T08:07:20.255Z,97.20
2018-09-03T08:09:49.416Z,97.10
2018-09-03T08:12:18.653Z,97.50
2018-09-03T08:14:47.749Z,97.70
2018-09-03T08:17:17.267Z,97.80
2018-09-03T08:19:46.770Z,97.70
2018-09-03T08:22:16.054Z,97.80
2018-09-03T08:24:45.238Z,98.10
2018-09-03T08:27:14.445Z,98.30
2018-09-03T08:29:43.899Z,98.30
2018-09-03T08:32:13.255Z,98.40
2018-09-03T08:34:42.487Z,98.30
2018-09-03T08:37:11.586Z,98.60
2018-09-03T08:39:40.991Z,98.70
2018-09-03T08:42:10.118Z,98.50
2018-09-03T08:44:39.536Z,98.60
2018-09-03T08:47:09.052Z,98.60
2018-09-03T08:49:38.179Z,98.60
2018-09-03T08:52:07.774Z,98.40
2018-09-03T08:54:37.250Z,98.50
2018-09-03T08:57:06.455Z,98.40
2018-09-03T08:59:35.788Z,98.30
2018-09-03T09:02:05.128Z,98.30
2018-09-03T09:04:34.304Z,98.50
2018-09-03T09:07:03.830Z,98.60
2018-09-03T09:09:33.134Z,98.70
2018-09-03T09:12:05.072Z,98.80
2018-09-03T09:14:34.315Z,98.60
2018-09-03T09:17:03.487Z,98.90
2018-09-03T09:19:32.920Z,98.70
2018-09-03T09:22:02.075Z,98.30
2018-09-03T09:24:31.509Z,98.50
2018-09-03T09:27:00.832Z,98.50
2018-09-03T09:29:29.932Z,98.50
2018-09-03T09:31:59.195Z,98.60
2018-09-03T09:34:28.755Z,99.00
2018-09-03T09:36:57.855Z,99.20
2018-09-03T09:39:27.179Z,98.30
2018-09-03T09:41:56.368Z,98.40
2018-09-03T09:44:25.724Z,97.60
2018-09-03T09:46:55.142Z,96.70
2018-09-03T09:49:24.365Z,98.10
2018-09-03T09:51:53.752Z,97.90
2018-09-03T09:54:23.097Z,96.30
2018-09-03T09:56:52.500Z,96.50
2018-09-03T09:59:21.983Z,97.00
2018-09-03T10:01:51.144Z,96.80
2018-09-03T10:04:21.123Z,95.70
2018-09-03T10:06:50.251Z,95.50
2018-09-03T10:09:19.576Z,96.30
2018-09-03T10:11:49.019Z,95.50
2018-09-03T10:14:18.400Z,94.90
2018-09-03T10:16:47.840Z,94.40
2018-09-03T10:19:17.053Z,94.30
2018-09-03T10:21:46.348Z,94.30
2018-09-03T10:24:15.487Z,94.90
2018-09-03T10:26:44.780Z,94.40
2018-09-03T10:29:14.067Z,94.00
2018-09-03T10:31:43.424Z,93.00
2018-09-03T10:34:12.605Z,92.50
2018-09-03T10:36:41.824Z,92.00
2018-09-03T10:39:11.164Z,92.80
2018-09-03T10:41:40.372Z,92.90
2018-09-03T10:44:09.654Z,92.80
2018-09-03T10:46:38.796Z,91.40
2018-09-03T10:49:07.979Z,91.70
2018-09-03T10:51:37.259Z,90.80
2018-09-03T10:54:06.631Z,91.70
2018-09-03T10:56:36.147Z,91.30
2018-09-03T10:59:05.566Z,91.50
2018-09-03T11:01:34.801Z,90.60
2018-09-03T11:04:04.010Z,90.40
2018-09-03T11:06:34.725Z,88.70
2018-09-03T11:09:05.179Z,90.20
2018-09-03T11:11:34.374Z,88.50
2018-09-03T11:14:03.689Z,88.40
2018-09-03T11:16:32.980Z,87.80
2018-09-03T11:19:02.201Z,89.10
2018-09-03T11:21:31.615Z,87.10
2018-09-03T11:24:00.695Z,87.20
2018-09-03T11:26:30.829Z,86.00
2018-09-03T11:29:00.402Z,84.20
2018-09-03T11:31:29.604Z,85.00
2018-09-03T11:33:58.908Z,86.20
2018-09-03T11:36:28.287Z,86.80
2018-09-03T11:38:57.526Z,86.00
2018-09-03T11:41:26.657Z,86.80
2018-09-03T11:43:56.114Z,86.40
2018-09-03T11:46:25.335Z,85.00
2018-09-03T11:48:54.529Z,87.50
2018-09-03T11:51:23.923Z,86.90
2018-09-03T11:53:53.345Z,86.30
2018-09-03T11:56:22.651Z,86.20
2018-09-03T11:58:52.015Z,86.10
2018-09-03T12:01:21.326Z,86.20
2018-09-03T12:03:50.827Z,87.20
2018-09-03T12:06:20.050Z,86.00
2018-09-03T12:08:49.296Z,86.70
2018-09-03T12:11:18.397Z,85.50
2018-09-03T12:13:47.674Z,87.30
2018-09-03T12:16:20.159Z,86.80
2018-09-03T12:18:49.363Z,87.20
2018-09-03T12:21:19.238Z,87.60
2018-09-03T12:23:48.475Z,86.80
2018-09-03T12:26:17.687Z,86.00
2018-09-03T12:28:46.915Z,87.90
2018-09-03T12:31:16.341Z,87.20
2018-09-03T12:33:45.549Z,86.50
2018-09-03T12:36:14.717Z,84.30
2018-09-03T12:38:44.030Z,86.20
2018-09-03T12:41:13.296Z,85.40
2018-09-03T12:43:48.652Z,86.40
2018-09-03T12:46:18.209Z,86.90
2018-09-03T12:48:53.676Z,86.30
2018-09-03T12:51:23.051Z,86.50
2018-09-03T12:53:52.384Z,86.30
2018-09-03T12:56:21.594Z,86.30
2018-09-03T12:58:50.950Z,86.50
2018-09-03T13:01:20.330Z,86.10
2018-09-03T13:03:49.561Z,86.70
2018-09-03T13:06:18.815Z,86.40
2018-09-03T13:08:49.371Z,86.70
2018-09-03T13:11:18.559Z,87.30
2018-09-03T13:13:47.798Z,87.00
2018-09-03T13:16:17.114Z,85.90
2018-09-03T13:18:46.374Z,86.10
2018-09-03T13:21:15.683Z,87.40
2018-09-03T13:23:45.369Z,87.10
2018-09-03T13:26:14.603Z,86.60
2018-09-03T13:28:43.849Z,86.40
2018-09-03T13:31:14.802Z,87.80
2018-09-03T13:33:44.166Z,87.30
2018-09-03T13:36:13.657Z,86.90
2018-09-03T13:38:42.869Z,88.40
2018-09-03T13:41:12.397Z,87.50
2018-09-03T13:43:41.589Z,88.50
2018-09-03T13:46:17.521Z,89.10
2018-09-03T13:48:46.819Z,89.80
2018-09-03T13:51:16.040Z,87.40
2018-09-03T13:53:45.249Z,89.00
2018-09-03T13:56:14.443Z,88.90
2018-09-03T13:58:43.617Z,89.10
2018-09-03T14:01:12.847Z,88.50
2018-09-03T14:03:42.168Z,88.90
2018-09-03T14:06:14.709Z,88.80
2018-09-03T14:08:43.875Z,89.30
2018-09-03T14:11:13.357Z,90.10
2018-09-03T14:13:43.667Z,89.50
2018-09-03T14:16:12.904Z,89.20
2018-09-03T14:18:42.167Z,87.40
2018-09-03T14:21:16.027Z,87.30
2018-09-03T14:23:45.423Z,87.50
2018-09-03T14:26:14.564Z,88.90
2018-09-03T14:28:43.689Z,88.40
2018-09-03T14:31:13.035Z,89.20
2018-09-03T14:33:42.313Z,87.80
2018-09-03T14:36:11.673Z,88.20
2018-09-03T14:38:41.804Z,89.40
2018-09-03T14:41:11.027Z,88.70
2018-09-03T14:43:40.255Z,89.30
2018-09-03T14:46:09.556Z,88.70
2018-09-03T14:48:38.715Z,90.00
2018-09-03T14:51:07.925Z,89.90
2018-09-03T14:53:37.115Z,90.30
2018-09-03T14:56:06.474Z,90.10
2018-09-03T14:58:35.558Z,90.00
2018-09-03T15:01:04.798Z,90.40
2018-09-03T15:03:34.218Z,90.70
2018-09-03T15:06:03.561Z,90.30
2018-09-03T15:08:33.039Z,90.20
2018-09-03T15:11:02.353Z,90.00
2018-09-03T15:13:31.675Z,90.30
2018-09-03T15:16:00.865Z,90.80
2018-09-03T15:18:29.977Z,90.50
2018-09-03T15:20:59.364Z,90.70
2018-09-03T15:23:28.585Z,90.70
2018-09-03T15:25:57.678Z,91.00
2018-09-03T15:28:27.168Z,90.90
2018-09-03T15:30:56.551Z,91.20
2018-09-03T15:33:26.247Z,91.60
2018-09-03T15:35:55.594Z,91.60
2018-09-03T15:38:24.834Z,91.80
2018-09-03T15:40:54.298Z,92.10
2018-09-03T15:43:23.643Z,91.90
2018-09-03T15:45:52.868Z,92.10
2018-09-03T15:48:22.190Z,91.90
2018-09-03T15:50:51.602Z,92.10
2018-09-03T15:53:20.890Z,92.40
2018-09-03T15:55:51.496Z,92.50
2018-09-03T15:58:20.806Z,92.60
2018-09-03T16:00:50.103Z,92.60
2018-09-03T16:03:19.499Z,92.70
2018-09-03T16:05:48.896Z,93.00
2018-09-03T16:08:18.153Z,92.90
2018-09-03T16:10:47.515Z,91.90
2018-09-03T16:13:18.236Z,91.70
2018-09-03T16:15:47.520Z,91.90
2018-09-03T16:18:16.908Z,92.30
2018-09-03T16:20:46.691Z,92.80
2018-09-03T16:23:16.036Z,92.70
2018-09-03T16:25:45.168Z,92.70
2018-09-03T16:28:14.265Z,92.70
2018-09-03T16:30:42.915Z,92.70
2018-09-03T16:33:12.049Z,92.60
2018-09-03T16:35:41.368Z,92.50
2018-09-03T16:38:10.316Z,92.50
2018-09-03T16:40:44.767Z,92.70
2018-09-03T16:43:16.749Z,92.70
2018-09-03T16:45:47.438Z,92.40
2018-09-03T16:48:16.899Z,92.80
2018-09-03T16:50:46.278Z,92.90
2018-09-03T16:53:15.513Z,93.20
2018-09-03T16:55:44.914Z,93.30
2018-09-03T16:58:14.129Z,93.20
2018-09-03T17:00:43.465Z,93.20
2018-09-03T17:03:12.765Z,93.40
2018-09-03T17:05:43.952Z,93.70
2018-09-03T17:08:13.473Z,93.90
2018-09-03T17:10:42.776Z,94.10
2018-09-03T17:13:11.984Z,93.80
2018-09-03T17:15:45.764Z,93.50
2018-09-03T17:18:15.072Z,93.60
2018-09-03T17:20:44.185Z,93.60
2018-09-03T17:23:13.341Z,93.60
2018-09-03T17:25:43.094Z,93.90
2018-09-03T17:28:12.378Z,94.30
2018-09-03T17:30:41.524Z,94.30
2018-09-03T17:33:10.573Z,94.50
2018-09-03T17:35:39.756Z,93.90
2018-09-03T17:38:09.050Z,94.20
2018-09-03T17:40:38.328Z,94.60
2018-09-03T17:43:07.439Z,94.50
2018-09-03T17:45:36.577Z,94.50
2018-09-03T17:48:06.133Z,94.60
2018-09-03T17:50:35.648Z,94.70
2018-09-03T17:53:04.901Z,94.40
2018-09-03T17:55:34.023Z,94.40
2018-09-03T17:58:04.017Z,94.60
2018-09-03T18:00:33.098Z,94.50
2018-09-03T18:03:02.284Z,94.50
2018-09-03T18:05:31.245Z,94.60
2018-09-03T18:08:00.497Z,95.00
2018-09-03T18:10:29.611Z,95.00
2018-09-03T18:12:58.716Z,94.80
2018-09-03T18:15:27.806Z,94.60
2018-09-03T18:17:57.698Z,94.60
2018-09-03T18:20:28.251Z,94.70
2018-09-03T18:22:57.496Z,95.00
2018-09-03T18:25:26.585Z,95.00
2018-09-03T18:27:55.886Z,94.70
2018-09-03T18:30:24.931Z,94.20
2018-09-03T18:32:54.130Z,93.60
2018-09-03T18:35:23.390Z,93.50
2018-09-03T18:37:52.327Z,92.60
2018-09-03T18:40:21.447Z,92.40
2018-09-03T18:42:50.589Z,91.90
2018-09-03T18:45:19.775Z,91.80
2018-09-03T18:47:48.976Z,91.00
2018-09-03T18:50:19.096Z,91.30
2018-09-03T18:52:48.315Z,91.80
2018-09-03T18:55:20.098Z,92.10
2018-09-03T18:57:49.336Z,92.70
2018-09-03T19:00:18.737Z,93.00
2018-09-03T19:02:47.838Z,93.30
2018-09-03T19:05:16.937Z,93.70
2018-09-03T19:07:46.013Z,93.80
2018-09-03T19:10:15.088Z,94.00
2018-09-03T19:12:44.120Z,94.30
2018-09-03T19:15:13.592Z,94.40
2018-09-03T19:17:42.920Z,94.50
2018-09-03T19:20:12.746Z,94.80
2018-09-03T19:22:42.063Z,94.80
2018-09-03T19:25:11.261Z,94.90
2018-09-03T19:27:40.371Z,95.10
2018-09-03T19:30:09.457Z,95.20
2018-09-03T19:32:38.677Z,95.30
2018-09-03T19:35:07.809Z,95.30
2018-09-03T19:37:37.037Z,95.40
2018-09-03T19:40:06.357Z,95.70
2018-09-03T19:42:36.616Z,95.80
2018-09-03T19:45:06.664Z,95.80
2018-09-03T19:47:36.390Z,96.00
2018-09-03T19:50:06.470Z,96.20
2018-09-03T19:52:37.574Z,96.20
2018-09-03T19:55:06.729Z,96.60
2018-09-03T19:57:35.967Z,96.70
2018-09-03T20:00:05.785Z,96.80
2018-09-03T20:02:34.910Z,96.90
2018-09-03T20:05:04.126Z,97.30
2018-09-03T20:07:33.081Z,97.20
2018-09-03T20:10:02.352Z,97.40
2018-09-03T20:12:31.928Z,97.90
2018-09-03T20:15:01.127Z,97.70
2018-09-03T20:17:30.940Z,97.50
2018-09-03T20:19:59.985Z,97.60
2018-09-03T20:22:30.446Z,97.70
2018-09-03T20:24:59.693Z,97.50
2018-09-03T20:27:28.770Z,97.60
2018-09-03T20:29:58.011Z,97.60
2018-09-03T20:32:26.972Z,97.60
2018-09-03T20:34:56.707Z,97.50
2018-09-03T20:37:25.818Z,97.60
2018-09-03T20:39:55.240Z,97.80
2018-09-03T20:42:24.416Z,97.80
2018-09-03T20:44:53.638Z,97.90
2018-09-03T20:47:22.629Z,98.20
2018-09-03T20:49:51.759Z,98.10
2018-09-03T20:52:21.051Z,98.60
2018-09-03T20:54:50.310Z,98.80
2018-09-03T20:57:19.409Z,98.80
2018-09-03T20:59:48.699Z,98.60
2018-09-03T21:02:17.950Z,98.60
2018-09-03T21:04:47.481Z,98.70
2018-09-03T21:07:16.490Z,98.60
2018-09-03T21:09:45.786Z,98.10
2018-09-03T21:12:15.855Z,98.40
2018-09-03T21:14:45.013Z,98.40
2018-09-03T21:17:14.159Z,98.40
2018-09-03T21:19:43.272Z,98.60
2018-09-03T21:22:12.544Z,98.70
2018-09-03T21:24:41.485Z,98.60
2018-09-03T21:27:11.816Z,98.60
2018-09-03T21:29:41.007Z,99.10
2018-09-03T21:32:10.042Z,98.60
2018-09-03T21:34:39.007Z,98.60
2018-09-03T21:37:08.090Z,98.90
2018-09-03T21:39:37.215Z,99.10
2018-09-03T21:42:07.496Z,98.90
2018-09-03T21:44:36.695Z,98.80
2018-09-03T21:47:05.803Z,98.70
2018-09-03T21:49:35.911Z,98.60
2018-09-03T21:52:05.077Z,98.50
2018-09-03T21:54:34.830Z,98.60
2018-09-03T21:57:03.940Z,98.80
2018-09-03T21:59:33.479Z,98.80
2018-09-03T22:02:03.072Z,98.70
2018-09-03T22:04:32.117Z,98.60
2018-09-03T22:07:01.096Z,98.60
2018-09-03T22:09:30.181Z,98.80
2018-09-03T22:11:59.375Z,98.80
2018-09-03T22:14:29.192Z,98.70
2018-09-03T22:16:58.590Z,98.60
2018-09-03T22:19:27.696Z,98.80
2018-09-03T22:21:56.669Z,98.90
2018-09-03T22:24:26.557Z,99.00
2018-09-03T22:26:55.558Z,99.20
2018-09-03T22:29:24.835Z,99.00
2018-09-03T22:31:54.367Z,99.10
2018-09-03T22:34:23.281Z,99.10
2018-09-03T22:36:52.399Z,99.20
2018-09-03T22:39:21.567Z,99.60
2018-09-03T22:41:50.480Z,99.90
2018-09-03T22:44:19.511Z,99.90
2018-09-03T22:46:48.560Z,99.90
2018-09-03T22:49:18.108Z,99.90
2018-09-03T22:51:47.135Z,99.90
2018-09-03T22:54:16.212Z,99.90
2018-09-03T22:56:45.242Z,99.90
2018-09-03T22:59:14.746Z,99.90
2018-09-03T23:01:43.825Z,99.60
2018-09-03T23:04:12.822Z,99.70
2018-09-03T23:06:41.809Z,99.90
2018-09-03T23:09:10.690Z,99.90
2018-09-03T23:11:39.606Z,99.90
2018-09-03T23:14:09.056Z,99.90
2018-09-03T23:16:38.061Z,99.90
2018-09-03T23:19:07.101Z,99.90
2018-09-03T23:21:36.025Z,99.90
2018-09-03T23:24:05.389Z,99.90
2018-09-03T23:26:34.664Z,99.90
2018-09-03T23:29:03.815Z,99.90
2018-09-03T23:31:33.074Z,99.90
2018-09-03T23:34:02.178Z,99.90
2018-09-03T23:36:31.007Z,99.90
2018-09-03T23:38:59.932Z,99.90
2018-09-03T23:41:29.473Z,99.90
2018-09-03T23:43:58.403Z,99.90
2018-09-03T23:46:28.052Z,99.90
2018-09-03T23:48:57.620Z,99.90
2018-09-03T23:51:27.332Z,99.90
2018-09-03T23:53:56.428Z,99.90
2018-09-03T23:56:25.431Z,99.90
2018-09-03T23:58:54.599Z,99.90
